sensor_id;sensor_type;location;lat;lon;timestamp;pressure;altitude;pressure_sealevel;temperature
10869;BMP180;62667;48.698;8.762;2023-11-19T00:00:52;95884.00;;;8.20
10869;BMP180;62667;48.698;8.762;2023-11-19T00:03:19;95878.00;;;8.30
10869;BMP180;62667;48.698;8.762;2023-11-19T00:05:46;95876.00;;;8.30
10869;BMP180;62667;48.698;8.762;2023-11-19T00:08:14;95870.00;;;8.20
10869;BMP180;62667;48.698;8.762;2023-11-19T00:10:44;95863.00;;;8.20
10869;BMP180;62667;48.698;8.762;2023-11-19T00:13:14;95862.00;;;8.30
10869;BMP180;62667;48.698;8.762;2023-11-19T00:15:42;95882.00;;;8.30
10869;BMP180;62667;48.698;8.762;2023-11-19T00:18:11;95876.00;;;8.20
10869;BMP180;62667;48.698;8.762;2023-11-19T00:20:40;95872.00;;;8.10
10869;BMP180;62667;48.698;8.762;2023-11-19T00:23:11;95871.00;;;8.10
10869;BMP180;62667;48.698;8.762;2023-11-19T00:25:38;95854.00;;;8.10
10869;BMP180;62667;48.698;8.762;2023-11-19T00:28:06;95847.00;;;8.10
10869;BMP180;62667;48.698;8.762;2023-11-19T00:30:35;95853.00;;;8.20
10869;BMP180;62667;48.698;8.762;2023-11-19T00:33:06;95850.00;;;8.30
10869;BMP180;62667;48.698;8.762;2023-11-19T00:35:33;95846.00;;;8.30
10869;BMP180;62667;48.698;8.762;2023-11-19T00:38:01;95831.00;;;8.30
10869;BMP180;62667;48.698;8.762;2023-11-19T00:40:29;95846.00;;;8.40
10869;BMP180;62667;48.698;8.762;2023-11-19T00:42:56;95833.00;;;8.30
10869;BMP180;62667;48.698;8.762;2023-11-19T00:45:24;95827.00;;;8.30
10869;BMP180;62667;48.698;8.762;2023-11-19T00:47:57;95828.00;;;8.40
10869;BMP180;62667;48.698;8.762;2023-11-19T00:50:28;95826.00;;;8.30
10869;BMP180;62667;48.698;8.762;2023-11-19T00:52:57;95826.00;;;8.40
10869;BMP180;62667;48.698;8.762;2023-11-19T00:55:25;95815.00;;;8.50
10869;BMP180;62667;48.698;8.762;2023-11-19T00:57:53;95819.00;;;8.50
10869;BMP180;62667;48.698;8.762;2023-11-19T01:00:22;95820.00;;;8.40
10869;BMP180;62667;48.698;8.762;2023-11-19T01:02:54;95822.00;;;8.30
10869;BMP180;62667;48.698;8.762;2023-11-19T01:05:22;95820.00;;;8.40
10869;BMP180;62667;48.698;8.762;2023-11-19T01:07:49;95818.00;;;8.50
10869;BMP180;62667;48.698;8.762;2023-11-19T01:10:22;95815.00;;;8.40
10869;BMP180;62667;48.698;8.762;2023-11-19T01:12:51;95822.00;;;8.30
10869;BMP180;62667;48.698;8.762;2023-11-19T01:15:19;95822.00;;;8.30
10869;BMP180;62667;48.698;8.762;2023-11-19T01:17:46;95814.00;;;8.30
10869;BMP180;62667;48.698;8.762;2023-11-19T01:20:18;95805.00;;;8.40
10869;BMP180;62667;48.698;8.762;2023-11-19T01:22:46;95793.00;;;8.40
10869;BMP180;62667;48.698;8.762;2023-11-19T01:25:15;95795.00;;;8.50
10869;BMP180;62667;48.698;8.762;2023-11-19T01:27:42;95794.00;;;8.50
10869;BMP180;62667;48.698;8.762;2023-11-19T01:30:13;95793.00;;;8.60
10869;BMP180;62667;48.698;8.762;2023-11-19T01:32:40;95798.00;;;8.60
10869;BMP180;62667;48.698;8.762;2023-11-19T01:35:08;95806.00;;;8.50
10869;BMP180;62667;48.698;8.762;2023-11-19T01:37:37;95801.00;;;8.60
10869;BMP180;62667;48.698;8.762;2023-11-19T01:40:05;95800.00;;;8.60
10869;BMP180;62667;48.698;8.762;2023-11-19T01:42:36;95787.00;;;8.60
10869;BMP180;62667;48.698;8.762;2023-11-19T01:45:05;95794.00;;;8.50
10869;BMP180;62667;48.698;8.762;2023-11-19T01:47:35;95789.00;;;8.50
10869;BMP180;62667;48.698;8.762;2023-11-19T01:50:04;95801.00;;;8.50
10869;BMP180;62667;48.698;8.762;2023-11-19T01:52:35;95800.00;;;8.60
10869;BMP180;62667;48.698;8.762;2023-11-19T01:55:05;95799.00;;;8.60
10869;BMP180;62667;48.698;8.762;2023-11-19T01:57:33;95785.00;;;8.60
10869;BMP180;62667;48.698;8.762;2023-11-19T02:00:04;95789.00;;;8.70
10869;BMP180;62667;48.698;8.762;2023-11-19T02:02:32;95788.00;;;8.80
10869;BMP180;62667;48.698;8.762;2023-11-19T02:05:00;95781.00;;;8.80
10869;BMP180;62667;48.698;8.762;2023-11-19T02:07:28;95789.00;;;8.80
10869;BMP180;62667;48.698;8.762;2023-11-19T02:09:55;95790.00;;;8.80
10869;BMP180;62667;48.698;8.762;2023-11-19T02:12:26;95785.00;;;8.80
10869;BMP180;62667;48.698;8.762;2023-11-19T02:14:55;95786.00;;;8.80
10869;BMP180;62667;48.698;8.762;2023-11-19T02:17:26;95781.00;;;8.70
10869;BMP180;62667;48.698;8.762;2023-11-19T02:19:54;95769.00;;;8.80
10869;BMP180;62667;48.698;8.762;2023-11-19T02:22:22;95766.00;;;8.80
10869;BMP180;62667;48.698;8.762;2023-11-19T02:24:54;95784.00;;;8.90
10869;BMP180;62667;48.698;8.762;2023-11-19T02:30:00;95775.00;;;9.10
10869;BMP180;62667;48.698;8.762;2023-11-19T02:32:31;95774.00;;;9.10
10869;BMP180;62667;48.698;8.762;2023-11-19T02:34:59;95775.00;;;9.00
10869;BMP180;62667;48.698;8.762;2023-11-19T02:37:26;95771.00;;;9.10
10869;BMP180;62667;48.698;8.762;2023-11-19T02:39:54;95773.00;;;9.10
10869;BMP180;62667;48.698;8.762;2023-11-19T02:42:22;95782.00;;;9.10
10869;BMP180;62667;48.698;8.762;2023-11-19T02:44:50;95775.00;;;9.00
10869;BMP180;62667;48.698;8.762;2023-11-19T02:47:19;95774.00;;;9.20
10869;BMP180;62667;48.698;8.762;2023-11-19T02:49:47;95775.00;;;9.20
10869;BMP180;62667;48.698;8.762;2023-11-19T02:52:16;95777.00;;;9.20
10869;BMP180;62667;48.698;8.762;2023-11-19T02:54:44;95769.00;;;9.30
10869;BMP180;62667;48.698;8.762;2023-11-19T02:57:14;95781.00;;;9.30
10869;BMP180;62667;48.698;8.762;2023-11-19T02:59:42;95785.00;;;9.20
10869;BMP180;62667;48.698;8.762;2023-11-19T03:02:09;95794.00;;;9.40
10869;BMP180;62667;48.698;8.762;2023-11-19T03:04:39;95763.00;;;9.40
10869;BMP180;62667;48.698;8.762;2023-11-19T03:07:06;95800.00;;;9.30
10869;BMP180;62667;48.698;8.762;2023-11-19T03:09:34;95785.00;;;9.40
10869;BMP180;62667;48.698;8.762;2023-11-19T03:12:02;95791.00;;;9.30
10869;BMP180;62667;48.698;8.762;2023-11-19T03:14:33;95780.00;;;9.40
10869;BMP180;62667;48.698;8.762;2023-11-19T03:17:01;95775.00;;;9.40
10869;BMP180;62667;48.698;8.762;2023-11-19T03:19:29;95775.00;;;9.50
10869;BMP180;62667;48.698;8.762;2023-11-19T03:21:58;95776.00;;;9.30
10869;BMP180;62667;48.698;8.762;2023-11-19T03:24:26;95770.00;;;9.30
10869;BMP180;62667;48.698;8.762;2023-11-19T03:26:54;95775.00;;;9.30
10869;BMP180;62667;48.698;8.762;2023-11-19T03:29:21;95780.00;;;9.30
10869;BMP180;62667;48.698;8.762;2023-11-19T03:31:49;95784.00;;;9.50
10869;BMP180;62667;48.698;8.762;2023-11-19T03:34:16;95774.00;;;9.50
10869;BMP180;62667;48.698;8.762;2023-11-19T03:36:43;95779.00;;;9.50
10869;BMP180;62667;48.698;8.762;2023-11-19T03:39:13;95774.00;;;9.40
10869;BMP180;62667;48.698;8.762;2023-11-19T03:41:40;95770.00;;;9.30
10869;BMP180;62667;48.698;8.762;2023-11-19T03:44:07;95774.00;;;9.40
10869;BMP180;62667;48.698;8.762;2023-11-19T03:46:35;95772.00;;;9.30
10869;BMP180;62667;48.698;8.762;2023-11-19T03:49:02;95769.00;;;9.40
10869;BMP180;62667;48.698;8.762;2023-11-19T03:51:30;95768.00;;;9.50
10869;BMP180;62667;48.698;8.762;2023-11-19T03:53:57;95775.00;;;9.50
10869;BMP180;62667;48.698;8.762;2023-11-19T03:56:26;95773.00;;;9.50
10869;BMP180;62667;48.698;8.762;2023-11-19T03:58:54;95760.00;;;9.60
10869;BMP180;62667;48.698;8.762;2023-11-19T04:01:21;95753.00;;;9.60
10869;BMP180;62667;48.698;8.762;2023-11-19T04:03:48;95766.00;;;9.70
10869;BMP180;62667;48.698;8.762;2023-11-19T04:06:16;95755.00;;;9.70
10869;BMP180;62667;48.698;8.762;2023-11-19T04:08:43;95766.00;;;9.60
10869;BMP180;62667;48.698;8.762;2023-11-19T04:11:11;95773.00;;;9.60
10869;BMP180;62667;48.698;8.762;2023-11-19T04:13:39;95766.00;;;9.60
10869;BMP180;62667;48.698;8.762;2023-11-19T04:16:08;95768.00;;;9.60
10869;BMP180;62667;48.698;8.762;2023-11-19T04:18:35;95762.00;;;9.60
10869;BMP180;62667;48.698;8.762;2023-11-19T04:21:06;95761.00;;;9.70
10869;BMP180;62667;48.698;8.762;2023-11-19T04:23:33;95766.00;;;9.70
10869;BMP180;62667;48.698;8.762;2023-11-19T04:26:02;95769.00;;;9.80
10869;BMP180;62667;48.698;8.762;2023-11-19T04:28:30;95780.00;;;9.70
10869;BMP180;62667;48.698;8.762;2023-11-19T04:30:59;95788.00;;;9.80
10869;BMP180;62667;48.698;8.762;2023-11-19T04:33:26;95786.00;;;9.80
10869;BMP180;62667;48.698;8.762;2023-11-19T04:35:54;95786.00;;;9.90
10869;BMP180;62667;48.698;8.762;2023-11-19T04:38:22;95779.00;;;9.80
10869;BMP180;62667;48.698;8.762;2023-11-19T04:40:49;95771.00;;;9.80
10869;BMP180;62667;48.698;8.762;2023-11-19T04:43:17;95778.00;;;9.70
10869;BMP180;62667;48.698;8.762;2023-11-19T04:45:45;95776.00;;;9.80
10869;BMP180;62667;48.698;8.762;2023-11-19T04:48:14;95785.00;;;9.90
10869;BMP180;62667;48.698;8.762;2023-11-19T04:50:41;95787.00;;;9.90
10869;BMP180;62667;48.698;8.762;2023-11-19T04:53:09;95780.00;;;10.00
10869;BMP180;62667;48.698;8.762;2023-11-19T04:55:36;95787.00;;;9.90
10869;BMP180;62667;48.698;8.762;2023-11-19T04:58:04;95797.00;;;9.90
10869;BMP180;62667;48.698;8.762;2023-11-19T05:00:32;95797.00;;;9.90
10869;BMP180;62667;48.698;8.762;2023-11-19T05:02:59;95789.00;;;10.10
10869;BMP180;62667;48.698;8.762;2023-11-19T05:05:28;95804.00;;;10.10
10869;BMP180;62667;48.698;8.762;2023-11-19T05:07:55;95799.00;;;10.00
10869;BMP180;62667;48.698;8.762;2023-11-19T05:10:23;95791.00;;;10.00
10869;BMP180;62667;48.698;8.762;2023-11-19T05:12:51;95784.00;;;10.10
10869;BMP180;62667;48.698;8.762;2023-11-19T05:15:18;95785.00;;;10.10
10869;BMP180;62667;48.698;8.762;2023-11-19T05:17:46;95770.00;;;10.10
10869;BMP180;62667;48.698;8.762;2023-11-19T05:20:13;95775.00;;;10.10
10869;BMP180;62667;48.698;8.762;2023-11-19T05:22:43;95772.00;;;10.10
10869;BMP180;62667;48.698;8.762;2023-11-19T05:25:12;95775.00;;;10.10
10869;BMP180;62667;48.698;8.762;2023-11-19T05:27:39;95782.00;;;10.10
10869;BMP180;62667;48.698;8.762;2023-11-19T05:30:07;95772.00;;;10.20
10869;BMP180;62667;48.698;8.762;2023-11-19T05:32:36;95775.00;;;10.20
10869;BMP180;62667;48.698;8.762;2023-11-19T05:35:04;95775.00;;;10.20
10869;BMP180;62667;48.698;8.762;2023-11-19T05:37:32;95760.00;;;10.10
10869;BMP180;62667;48.698;8.762;2023-11-19T05:40:02;95769.00;;;10.10
10869;BMP180;62667;48.698;8.762;2023-11-19T05:42:32;95770.00;;;10.10
10869;BMP180;62667;48.698;8.762;2023-11-19T05:45:00;95766.00;;;10.10
10869;BMP180;62667;48.698;8.762;2023-11-19T05:47:27;95769.00;;;10.30
10869;BMP180;62667;48.698;8.762;2023-11-19T05:49:55;95757.00;;;10.30
10869;BMP180;62667;48.698;8.762;2023-11-19T05:52:22;95767.00;;;10.30
10869;BMP180;62667;48.698;8.762;2023-11-19T05:54:50;95771.00;;;10.30
10869;BMP180;62667;48.698;8.762;2023-11-19T05:57:20;95762.00;;;10.30
10869;BMP180;62667;48.698;8.762;2023-11-19T05:59:51;95777.00;;;10.30
10869;BMP180;62667;48.698;8.762;2023-11-19T06:02:20;95775.00;;;10.40
10869;BMP180;62667;48.698;8.762;2023-11-19T06:04:48;95778.00;;;10.30
10869;BMP180;62667;48.698;8.762;2023-11-19T06:07:15;95765.00;;;10.30
10869;BMP180;62667;48.698;8.762;2023-11-19T06:09:42;95774.00;;;10.30
10869;BMP180;62667;48.698;8.762;2023-11-19T06:12:10;95776.00;;;10.30
10869;BMP180;62667;48.698;8.762;2023-11-19T06:14:40;95767.00;;;10.40
10869;BMP180;62667;48.698;8.762;2023-11-19T06:17:08;95762.00;;;10.40
10869;BMP180;62667;48.698;8.762;2023-11-19T06:19:37;95767.00;;;10.50
10869;BMP180;62667;48.698;8.762;2023-11-19T06:22:04;95775.00;;;10.60
10869;BMP180;62667;48.698;8.762;2023-11-19T06:24:32;95763.00;;;10.60
10869;BMP180;62667;48.698;8.762;2023-11-19T06:27:00;95773.00;;;10.60
10869;BMP180;62667;48.698;8.762;2023-11-19T06:29:27;95766.00;;;10.50
10869;BMP180;62667;48.698;8.762;2023-11-19T06:31:56;95771.00;;;10.50
10869;BMP180;62667;48.698;8.762;2023-11-19T06:34:23;95770.00;;;10.50
10869;BMP180;62667;48.698;8.762;2023-11-19T06:36:51;95773.00;;;10.60
10869;BMP180;62667;48.698;8.762;2023-11-19T06:39:19;95784.00;;;10.70
10869;BMP180;62667;48.698;8.762;2023-11-19T06:41:46;95781.00;;;10.70
10869;BMP180;62667;48.698;8.762;2023-11-19T06:44:14;95780.00;;;10.80
10869;BMP180;62667;48.698;8.762;2023-11-19T06:46:41;95772.00;;;10.80
10869;BMP180;62667;48.698;8.762;2023-11-19T06:49:10;95777.00;;;10.80
10869;BMP180;62667;48.698;8.762;2023-11-19T06:51:42;95772.00;;;10.80
10869;BMP180;62667;48.698;8.762;2023-11-19T06:54:10;95770.00;;;10.70
10869;BMP180;62667;48.698;8.762;2023-11-19T06:56:37;95765.00;;;10.80
10869;BMP180;62667;48.698;8.762;2023-11-19T06:59:05;95770.00;;;10.80
10869;BMP180;62667;48.698;8.762;2023-11-19T07:01:35;95773.00;;;10.90
10869;BMP180;62667;48.698;8.762;2023-11-19T07:04:03;95771.00;;;11.00
10869;BMP180;62667;48.698;8.762;2023-11-19T07:06:36;95768.00;;;11.00
10869;BMP180;62667;48.698;8.762;2023-11-19T07:09:04;95772.00;;;11.10
10869;BMP180;62667;48.698;8.762;2023-11-19T07:11:36;95761.00;;;11.10
10869;BMP180;62667;48.698;8.762;2023-11-19T07:14:05;95774.00;;;11.10
10869;BMP180;62667;48.698;8.762;2023-11-19T07:16:33;95773.00;;;11.10
10869;BMP180;62667;48.698;8.762;2023-11-19T07:19:00;95777.00;;;11.00
10869;BMP180;62667;48.698;8.762;2023-11-19T07:21:28;95786.00;;;11.10
10869;BMP180;62667;48.698;8.762;2023-11-19T07:24:00;95786.00;;;11.10
10869;BMP180;62667;48.698;8.762;2023-11-19T07:26:28;95796.00;;;11.10
10869;BMP180;62667;48.698;8.762;2023-11-19T07:28:55;95801.00;;;11.00
10869;BMP180;62667;48.698;8.762;2023-11-19T07:31:23;95801.00;;;11.00
10869;BMP180;62667;48.698;8.762;2023-11-19T07:33:50;95810.00;;;11.10
10869;BMP180;62667;48.698;8.762;2023-11-19T07:36:18;95809.00;;;11.00
10869;BMP180;62667;48.698;8.762;2023-11-19T07:38:46;95810.00;;;11.00
10869;BMP180;62667;48.698;8.762;2023-11-19T07:41:15;95804.00;;;11.00
10869;BMP180;62667;48.698;8.762;2023-11-19T07:43:44;95817.00;;;11.00
10869;BMP180;62667;48.698;8.762;2023-11-19T07:46:12;95807.00;;;11.20
10869;BMP180;62667;48.698;8.762;2023-11-19T07:48:41;95802.00;;;11.10
10869;BMP180;62667;48.698;8.762;2023-11-19T07:51:10;95807.00;;;11.10
10869;BMP180;62667;48.698;8.762;2023-11-19T07:53:38;95799.00;;;11.00
10869;BMP180;62667;48.698;8.762;2023-11-19T07:56:07;95809.00;;;11.00
10869;BMP180;62667;48.698;8.762;2023-11-19T07:58:36;95815.00;;;11.00
10869;BMP180;62667;48.698;8.762;2023-11-19T08:01:04;95812.00;;;10.90
10869;BMP180;62667;48.698;8.762;2023-11-19T08:03:32;95808.00;;;10.90
10869;BMP180;62667;48.698;8.762;2023-11-19T08:06:00;95813.00;;;10.80
10869;BMP180;62667;48.698;8.762;2023-11-19T08:08:28;95814.00;;;10.80
10869;BMP180;62667;48.698;8.762;2023-11-19T08:10:56;95811.00;;;10.80
10869;BMP180;62667;48.698;8.762;2023-11-19T08:13:24;95817.00;;;11.00
10869;BMP180;62667;48.698;8.762;2023-11-19T08:15:53;95787.00;;;10.90
10869;BMP180;62667;48.698;8.762;2023-11-19T08:18:20;95783.00;;;11.00
10869;BMP180;62667;48.698;8.762;2023-11-19T08:20:48;95789.00;;;11.00
10869;BMP180;62667;48.698;8.762;2023-11-19T08:23:19;95811.00;;;11.10
10869;BMP180;62667;48.698;8.762;2023-11-19T08:25:46;95818.00;;;11.20
10869;BMP180;62667;48.698;8.762;2023-11-19T08:28:14;95821.00;;;11.30
10869;BMP180;62667;48.698;8.762;2023-11-19T08:30:41;95820.00;;;11.40
10869;BMP180;62667;48.698;8.762;2023-11-19T08:33:11;95808.00;;;11.30
10869;BMP180;62667;48.698;8.762;2023-11-19T08:35:39;95798.00;;;11.40
10869;BMP180;62667;48.698;8.762;2023-11-19T08:38:06;95806.00;;;11.60
10869;BMP180;62667;48.698;8.762;2023-11-19T08:40:33;95816.00;;;11.60
10869;BMP180;62667;48.698;8.762;2023-11-19T08:43:01;95811.00;;;11.60
10869;BMP180;62667;48.698;8.762;2023-11-19T08:45:28;95810.00;;;11.70
10869;BMP180;62667;48.698;8.762;2023-11-19T08:47:56;95800.00;;;11.70
10869;BMP180;62667;48.698;8.762;2023-11-19T08:50:27;95807.00;;;11.70
10869;BMP180;62667;48.698;8.762;2023-11-19T08:52:55;95804.00;;;11.70
10869;BMP180;62667;48.698;8.762;2023-11-19T08:55:22;95814.00;;;11.70
10869;BMP180;62667;48.698;8.762;2023-11-19T08:57:50;95820.00;;;11.90
10869;BMP180;62667;48.698;8.762;2023-11-19T09:00:18;95817.00;;;11.90
10869;BMP180;62667;48.698;8.762;2023-11-19T09:02:47;95809.00;;;12.10
10869;BMP180;62667;48.698;8.762;2023-11-19T09:05:14;95802.00;;;12.30
10869;BMP180;62667;48.698;8.762;2023-11-19T09:07:43;95805.00;;;12.30
10869;BMP180;62667;48.698;8.762;2023-11-19T09:10:11;95812.00;;;12.30
10869;BMP180;62667;48.698;8.762;2023-11-19T09:12:38;95811.00;;;12.10
10869;BMP180;62667;48.698;8.762;2023-11-19T09:15:06;95813.00;;;12.30
10869;BMP180;62667;48.698;8.762;2023-11-19T09:17:36;95801.00;;;12.40
10869;BMP180;62667;48.698;8.762;2023-11-19T09:20:05;95808.00;;;12.60
10869;BMP180;62667;48.698;8.762;2023-11-19T09:22:32;95817.00;;;12.70
10869;BMP180;62667;48.698;8.762;2023-11-19T09:25:01;95814.00;;;12.80
10869;BMP180;62667;48.698;8.762;2023-11-19T09:27:28;95821.00;;;13.00
10869;BMP180;62667;48.698;8.762;2023-11-19T09:29:56;95827.00;;;13.00
10869;BMP180;62667;48.698;8.762;2023-11-19T09:32:25;95828.00;;;13.10
10869;BMP180;62667;48.698;8.762;2023-11-19T09:34:52;95830.00;;;13.00
10869;BMP180;62667;48.698;8.762;2023-11-19T09:37:20;95829.00;;;13.10
10869;BMP180;62667;48.698;8.762;2023-11-19T09:39:49;95826.00;;;13.20
10869;BMP180;62667;48.698;8.762;2023-11-19T09:42:18;95833.00;;;13.30
10869;BMP180;62667;48.698;8.762;2023-11-19T09:44:48;95814.00;;;13.20
10869;BMP180;62667;48.698;8.762;2023-11-19T09:47:17;95806.00;;;13.40
10869;BMP180;62667;48.698;8.762;2023-11-19T09:49:46;95822.00;;;13.20
10869;BMP180;62667;48.698;8.762;2023-11-19T09:52:14;95843.00;;;13.30
10869;BMP180;62667;48.698;8.762;2023-11-19T09:54:41;95854.00;;;13.00
10869;BMP180;62667;48.698;8.762;2023-11-19T09:57:09;95823.00;;;13.00
10869;BMP180;62667;48.698;8.762;2023-11-19T09:59:39;95809.00;;;12.90
10869;BMP180;62667;48.698;8.762;2023-11-19T10:02:07;95822.00;;;13.20
10869;BMP180;62667;48.698;8.762;2023-11-19T10:04:36;95808.00;;;13.30
10869;BMP180;62667;48.698;8.762;2023-11-19T10:07:04;95817.00;;;13.40
10869;BMP180;62667;48.698;8.762;2023-11-19T10:09:32;95810.00;;;13.20
10869;BMP180;62667;48.698;8.762;2023-11-19T10:11:59;95814.00;;;13.10
10869;BMP180;62667;48.698;8.762;2023-11-19T10:14:29;95809.00;;;13.20
10869;BMP180;62667;48.698;8.762;2023-11-19T10:17:01;95810.00;;;13.20
10869;BMP180;62667;48.698;8.762;2023-11-19T10:19:31;95804.00;;;13.10
10869;BMP180;62667;48.698;8.762;2023-11-19T10:22:04;95789.00;;;13.20
10869;BMP180;62667;48.698;8.762;2023-11-19T10:24:32;95782.00;;;13.30
10869;BMP180;62667;48.698;8.762;2023-11-19T10:27:00;95786.00;;;13.40
10869;BMP180;62667;48.698;8.762;2023-11-19T10:29:30;95783.00;;;13.40
10869;BMP180;62667;48.698;8.762;2023-11-19T10:31:58;95785.00;;;13.40
10869;BMP180;62667;48.698;8.762;2023-11-19T10:34:27;95801.00;;;13.30
10869;BMP180;62667;48.698;8.762;2023-11-19T10:36:56;95815.00;;;13.50
10869;BMP180;62667;48.698;8.762;2023-11-19T10:39:23;95779.00;;;13.60
10869;BMP180;62667;48.698;8.762;2023-11-19T10:42:15;95783.00;;;13.70
10869;BMP180;62667;48.698;8.762;2023-11-19T10:44:43;95752.00;;;13.80
10869;BMP180;62667;48.698;8.762;2023-11-19T10:47:11;95776.00;;;13.80
10869;BMP180;62667;48.698;8.762;2023-11-19T10:49:40;95764.00;;;13.70
10869;BMP180;62667;48.698;8.762;2023-11-19T10:52:09;95759.00;;;13.80
10869;BMP180;62667;48.698;8.762;2023-11-19T10:54:38;95744.00;;;14.20
10869;BMP180;62667;48.698;8.762;2023-11-19T10:57:09;95748.00;;;14.50
10869;BMP180;62667;48.698;8.762;2023-11-19T10:59:40;95731.00;;;14.10
10869;BMP180;62667;48.698;8.762;2023-11-19T11:02:10;95725.00;;;14.50
10869;BMP180;62667;48.698;8.762;2023-11-19T11:04:41;95718.00;;;14.50
10869;BMP180;62667;48.698;8.762;2023-11-19T11:07:09;95716.00;;;14.80
10869;BMP180;62667;48.698;8.762;2023-11-19T11:09:37;95726.00;;;15.40
10869;BMP180;62667;48.698;8.762;2023-11-19T11:12:07;95746.00;;;15.10
10869;BMP180;62667;48.698;8.762;2023-11-19T11:14:38;95735.00;;;15.20
10869;BMP180;62667;48.698;8.762;2023-11-19T11:17:09;95742.00;;;14.90
10869;BMP180;62667;48.698;8.762;2023-11-19T11:19:37;95736.00;;;15.10
10869;BMP180;62667;48.698;8.762;2023-11-19T11:22:06;95717.00;;;15.30
10869;BMP180;62667;48.698;8.762;2023-11-19T11:24:59;95755.00;;;15.20
10869;BMP180;62667;48.698;8.762;2023-11-19T11:27:57;95737.00;;;15.30
10869;BMP180;62667;48.698;8.762;2023-11-19T11:30:35;95720.00;;;15.40
10869;BMP180;62667;48.698;8.762;2023-11-19T11:33:24;95711.00;;;15.90
10869;BMP180;62667;48.698;8.762;2023-11-19T11:35:59;95724.00;;;15.90
10869;BMP180;62667;48.698;8.762;2023-11-19T11:38:37;95726.00;;;16.40
10869;BMP180;62667;48.698;8.762;2023-11-19T11:41:19;95698.00;;;16.70
10869;BMP180;62667;48.698;8.762;2023-11-19T11:43:48;95693.00;;;17.00
10869;BMP180;62667;48.698;8.762;2023-11-19T11:46:55;95681.00;;;17.70
10869;BMP180;62667;48.698;8.762;2023-11-19T11:49:27;95687.00;;;17.50
10869;BMP180;62667;48.698;8.762;2023-11-19T11:52:02;95683.00;;;18.10
10869;BMP180;62667;48.698;8.762;2023-11-19T11:54:34;95689.00;;;19.70
10869;BMP180;62667;48.698;8.762;2023-11-19T11:57:04;95699.00;;;19.50
10869;BMP180;62667;48.698;8.762;2023-11-19T11:59:42;95724.00;;;18.60
10869;BMP180;62667;48.698;8.762;2023-11-19T12:02:11;95695.00;;;19.30
10869;BMP180;62667;48.698;8.762;2023-11-19T12:04:40;95700.00;;;20.60
10869;BMP180;62667;48.698;8.762;2023-11-19T12:07:11;95701.00;;;21.30
10869;BMP180;62667;48.698;8.762;2023-11-19T12:09:41;95732.00;;;21.30
10869;BMP180;62667;48.698;8.762;2023-11-19T12:12:23;95693.00;;;21.30
10869;BMP180;62667;48.698;8.762;2023-11-19T12:15:05;95705.00;;;20.90
10869;BMP180;62667;48.698;8.762;2023-11-19T12:17:57;95702.00;;;21.40
10869;BMP180;62667;48.698;8.762;2023-11-19T12:20:25;95672.00;;;21.00
10869;BMP180;62667;48.698;8.762;2023-11-19T12:22:54;95701.00;;;21.50
10869;BMP180;62667;48.698;8.762;2023-11-19T12:25:22;95693.00;;;21.80
10869;BMP180;62667;48.698;8.762;2023-11-19T12:27:51;95720.00;;;22.50
10869;BMP180;62667;48.698;8.762;2023-11-19T12:30:22;95689.00;;;21.40
10869;BMP180;62667;48.698;8.762;2023-11-19T12:32:50;95699.00;;;23.90
10869;BMP180;62667;48.698;8.762;2023-11-19T12:35:19;95705.00;;;23.00
10869;BMP180;62667;48.698;8.762;2023-11-19T12:37:48;95690.00;;;21.80
10869;BMP180;62667;48.698;8.762;2023-11-19T12:40:18;95721.00;;;22.80
10869;BMP180;62667;48.698;8.762;2023-11-19T12:42:47;95689.00;;;20.10
10869;BMP180;62667;48.698;8.762;2023-11-19T12:45:15;95667.00;;;21.10
10869;BMP180;62667;48.698;8.762;2023-11-19T12:47:43;95682.00;;;21.30
10869;BMP180;62667;48.698;8.762;2023-11-19T12:50:13;95680.00;;;21.90
10869;BMP180;62667;48.698;8.762;2023-11-19T12:52:41;95678.00;;;22.70
10869;BMP180;62667;48.698;8.762;2023-11-19T12:55:24;95694.00;;;22.00
10869;BMP180;62667;48.698;8.762;2023-11-19T12:57:53;95695.00;;;22.20
10869;BMP180;62667;48.698;8.762;2023-11-19T13:00:22;95673.00;;;21.80
10869;BMP180;62667;48.698;8.762;2023-11-19T13:02:51;95689.00;;;23.30
10869;BMP180;62667;48.698;8.762;2023-11-19T13:05:26;95691.00;;;21.80
10869;BMP180;62667;48.698;8.762;2023-11-19T13:08:01;95678.00;;;23.80
10869;BMP180;62667;48.698;8.762;2023-11-19T13:10:29;95678.00;;;24.80
10869;BMP180;62667;48.698;8.762;2023-11-19T13:13:05;95679.00;;;24.60
10869;BMP180;62667;48.698;8.762;2023-11-19T13:15:34;95690.00;;;22.30
10869;BMP180;62667;48.698;8.762;2023-11-19T13:18:03;95687.00;;;22.90
10869;BMP180;62667;48.698;8.762;2023-11-19T13:20:30;95681.00;;;22.10
10869;BMP180;62667;48.698;8.762;2023-11-19T13:22:58;95687.00;;;23.60
10869;BMP180;62667;48.698;8.762;2023-11-19T13:25:26;95692.00;;;22.80
10869;BMP180;62667;48.698;8.762;2023-11-19T13:27:54;95692.00;;;22.40
10869;BMP180;62667;48.698;8.762;2023-11-19T13:30:24;95682.00;;;25.30
10869;BMP180;62667;48.698;8.762;2023-11-19T13:32:52;95690.00;;;26.50
10869;BMP180;62667;48.698;8.762;2023-11-19T13:35:21;95704.00;;;27.20
10869;BMP180;62667;48.698;8.762;2023-11-19T13:37:49;95710.00;;;24.90
10869;BMP180;62667;48.698;8.762;2023-11-19T13:40:18;95690.00;;;23.20
10869;BMP180;62667;48.698;8.762;2023-11-19T13:42:45;95668.00;;;21.90
10869;BMP180;62667;48.698;8.762;2023-11-19T13:45:14;95664.00;;;23.70
10869;BMP180;62667;48.698;8.762;2023-11-19T13:47:43;95691.00;;;25.40
10869;BMP180;62667;48.698;8.762;2023-11-19T13:50:12;95686.00;;;25.10
10869;BMP180;62667;48.698;8.762;2023-11-19T13:52:41;95693.00;;;25.60
10869;BMP180;62667;48.698;8.762;2023-11-19T13:55:09;95696.00;;;22.80
10869;BMP180;62667;48.698;8.762;2023-11-19T13:57:37;95706.00;;;23.90
10869;BMP180;62667;48.698;8.762;2023-11-19T14:00:07;95688.00;;;21.50
10869;BMP180;62667;48.698;8.762;2023-11-19T14:02:39;95701.00;;;21.80
10869;BMP180;62667;48.698;8.762;2023-11-19T14:05:08;95674.00;;;24.20
10869;BMP180;62667;48.698;8.762;2023-11-19T14:07:37;95688.00;;;24.10
10869;BMP180;62667;48.698;8.762;2023-11-19T14:10:05;95686.00;;;25.70
10869;BMP180;62667;48.698;8.762;2023-11-19T14:12:33;95685.00;;;27.50
10869;BMP180;62667;48.698;8.762;2023-11-19T14:15:02;95703.00;;;25.20
10869;BMP180;62667;48.698;8.762;2023-11-19T14:17:30;95685.00;;;23.20
10869;BMP180;62667;48.698;8.762;2023-11-19T14:19:58;95685.00;;;22.00
10869;BMP180;62667;48.698;8.762;2023-11-19T14:22:26;95692.00;;;23.60
10869;BMP180;62667;48.698;8.762;2023-11-19T14:24:55;95715.00;;;22.10
10869;BMP180;62667;48.698;8.762;2023-11-19T14:27:22;95701.00;;;22.20